Portada
METAR-TAF:

METAR-TAF

Aeropuertos :

Aurillac, Francia

latitud: 44-53N, longitud: 002-25E, altitud: 639 m

Observación

El informe se hizo hace 24 minutos, a las 20:00 UTC
Viento 3 kt del este-sureste, variando entre este-noreste y sureste
Temperatura 0°C
Humedad 93%
Presión 1018 hPa
Visibilidad 10 km o más
sin nubes por debajo de 1500 m y sin presencia de cumulonimbus.

METAR: LFLW 292000Z AUTO 11003KT 070V130 CAVOK 00/M01 Q1018

Hora: 21:24 (20:24 UTC)

Pronóstico

El informe se hizo hace 6 horas y 24 minutos, a las 14:00 UTC
Pronóstico válido del 29 a las 15 UTC al 29 a las 24 UTC
Viento 2 kt con dirección variable
Visibilidad 10 km o más
sin nubes por debajo de 1500 m y sin presencia de cumulonimbus.

TAF: LFLW 291400Z 2915/2924 VRB02KT CAVOK

Observaciones y pronósticos meteorológicos de más de 4000 aeropuertos (mensajes METAR y TAF).

Los puntos amarillos y rojos representan las estaciones disponibles.

Ponga el ratón en el punto deseado para ver el nombre de la estación.

Haga clic para ver las observaciones y los pronósticos meteorológicos.

Para cambiar el mapa : haga clic en los botones verdes con una cruz de color negro para hacer un zoom, en el botón verde con un guión para alejar o en las flechas verdes para mapas adyacentes.


METAR-TAF: